createdAt,value
2023-05-19T00:01:08.126Z,8.60
2023-05-19T00:03:40.452Z,8.50
2023-05-19T00:06:11.846Z,8.50
2023-05-19T00:08:40.305Z,8.50
2023-05-19T00:11:11.115Z,8.50
2023-05-19T00:13:39.594Z,8.40
2023-05-19T00:16:08.918Z,8.40
2023-05-19T00:18:37.320Z,8.30
2023-05-19T00:21:05.766Z,8.30
2023-05-19T00:23:36.173Z,8.20
2023-05-19T00:26:04.554Z,8.20
2023-05-19T00:28:34.271Z,8.20
2023-05-19T00:31:02.979Z,8.10
2023-05-19T00:33:31.262Z,8.10
2023-05-19T00:36:00.114Z,8.10
2023-05-19T00:38:32.191Z,8.10
2023-05-19T00:41:01.005Z,8.10
2023-05-19T00:43:30.209Z,8.10
2023-05-19T00:45:59.965Z,8.10
2023-05-19T00:48:28.397Z,8.10
2023-05-19T00:51:02.210Z,8.10
2023-05-19T00:53:31.037Z,8.10
2023-05-19T00:55:59.729Z,8.10
2023-05-19T00:58:32.655Z,8.00
2023-05-19T01:01:04.221Z,8.00
2023-05-19T01:03:35.239Z,8.00
2023-05-19T01:06:07.360Z,8.00
2023-05-19T01:08:36.557Z,8.00
2023-05-19T01:11:05.683Z,7.90
2023-05-19T01:13:34.299Z,7.90
2023-05-19T01:16:08.897Z,7.90
2023-05-19T01:18:44.842Z,7.90
2023-05-19T01:21:38.244Z,7.90
2023-05-19T01:24:18.048Z,7.80
2023-05-19T01:27:04.980Z,7.80
2023-05-19T01:29:48.893Z,7.70
2023-05-19T01:32:20.863Z,7.70
2023-05-19T01:34:50.549Z,7.60
2023-05-19T01:37:19.211Z,7.50
2023-05-19T01:39:49.493Z,7.50
2023-05-19T01:42:20.631Z,7.50
2023-05-19T01:44:49.286Z,7.50
2023-05-19T01:47:19.586Z,7.50
2023-05-19T01:49:47.917Z,7.60
2023-05-19T01:52:16.293Z,7.60
2023-05-19T01:54:44.646Z,7.60
2023-05-19T01:57:21.260Z,7.60
2023-05-19T01:59:55.661Z,7.60
2023-05-19T02:02:32.061Z,7.50
2023-05-19T02:05:04.002Z,7.50
2023-05-19T02:07:38.629Z,7.50
2023-05-19T02:10:10.167Z,7.40
2023-05-19T02:12:40.796Z,7.30
2023-05-19T02:15:16.863Z,7.30
2023-05-19T02:17:50.745Z,7.30
2023-05-19T02:20:19.431Z,7.30
2023-05-19T02:22:50.217Z,7.30
2023-05-19T02:25:18.577Z,7.20
2023-05-19T02:27:49.110Z,7.10
2023-05-19T02:30:17.659Z,7.10
2023-05-19T02:32:47.435Z,7.00
2023-05-19T02:35:18.688Z,6.90
2023-05-19T02:37:49.281Z,6.90
2023-05-19T02:40:18.648Z,6.90
2023-05-19T02:42:47.126Z,6.90
2023-05-19T02:45:17.694Z,6.80
2023-05-19T02:47:47.542Z,6.80
2023-05-19T02:50:16.018Z,6.80
2023-05-19T02:52:44.452Z,6.80
2023-05-19T02:55:17.382Z,6.90
2023-05-19T02:57:45.821Z,6.80
2023-05-19T03:00:17.273Z,6.80
2023-05-19T03:02:47.864Z,6.90
2023-05-19T03:05:16.492Z,6.90
2023-05-19T03:07:44.833Z,6.90
2023-05-19T03:10:13.224Z,6.90
2023-05-19T03:12:41.587Z,6.90
2023-05-19T03:15:13.141Z,6.90
2023-05-19T03:17:41.765Z,6.80
2023-05-19T03:20:12.561Z,6.80
2023-05-19T03:22:40.949Z,6.80
2023-05-19T03:25:10.176Z,6.80
2023-05-19T03:27:38.548Z,6.70
2023-05-19T03:30:09.092Z,6.80
2023-05-19T03:32:47.856Z,6.80
2023-05-19T03:35:18.093Z,6.80
2023-05-19T03:37:46.550Z,6.70
2023-05-19T03:40:15.576Z,6.80
2023-05-19T03:42:45.789Z,6.80
2023-05-19T03:45:14.305Z,7.00
2023-05-19T03:47:43.956Z,7.00
2023-05-19T03:50:34.136Z,7.10
2023-05-19T03:53:13.409Z,7.20
2023-05-19T03:55:44.507Z,7.30
2023-05-19T03:58:15.192Z,7.40
2023-05-19T04:00:43.717Z,7.50
2023-05-19T04:03:15.550Z,7.60
2023-05-19T04:05:45.456Z,7.70
2023-05-19T04:08:13.835Z,7.80
2023-05-19T04:10:42.189Z,7.80
2023-05-19T04:13:11.566Z,7.90
2023-05-19T04:15:42.238Z,8.00
2023-05-19T04:18:11.187Z,7.90
2023-05-19T04:20:42.283Z,8.00
2023-05-19T04:23:12.064Z,7.90
2023-05-19T04:25:40.925Z,7.90
2023-05-19T04:28:09.430Z,7.90
2023-05-19T04:30:38.718Z,7.90
2023-05-19T04:33:07.765Z,7.90
2023-05-19T04:35:38.194Z,7.90
2023-05-19T04:38:07.665Z,7.90
2023-05-19T04:40:40.419Z,8.00
2023-05-19T04:43:11.413Z,8.00
2023-05-19T04:45:42.676Z,8.10
2023-05-19T04:48:12.806Z,8.10
2023-05-19T04:50:42.205Z,8.10
2023-05-19T04:53:11.535Z,8.10
2023-05-19T04:55:41.917Z,8.20
2023-05-19T04:58:10.551Z,8.30
2023-05-19T05:00:39.009Z,8.30
2023-05-19T05:03:09.510Z,8.20
2023-05-19T05:05:37.976Z,8.20
2023-05-19T05:08:07.192Z,8.20
2023-05-19T05:10:41.453Z,8.30
2023-05-19T05:13:12.920Z,8.30
2023-05-19T05:15:41.744Z,8.40
2023-05-19T05:18:11.747Z,8.40
2023-05-19T05:20:40.996Z,8.50
2023-05-19T05:23:10.637Z,8.60
2023-05-19T05:25:44.000Z,8.60
2023-05-19T05:28:16.034Z,8.70
2023-05-19T05:30:45.110Z,8.60
2023-05-19T05:33:16.140Z,8.60
2023-05-19T05:35:47.081Z,8.60
2023-05-19T05:38:16.324Z,8.70
2023-05-19T05:40:46.121Z,8.70
2023-05-19T05:43:15.202Z,8.70
2023-05-19T05:45:49.428Z,8.70
2023-05-19T05:48:18.458Z,8.80
2023-05-19T05:50:47.464Z,8.80
2023-05-19T05:53:20.832Z,8.90
2023-05-19T05:55:54.755Z,8.90
2023-05-19T05:58:28.650Z,9.00
2023-05-19T06:00:58.810Z,9.00
2023-05-19T06:03:28.292Z,9.10
2023-05-19T06:05:59.944Z,9.20
2023-05-19T06:08:28.434Z,9.30
2023-05-19T06:11:01.295Z,9.40
2023-05-19T06:13:31.377Z,9.60
2023-05-19T06:16:01.876Z,9.80
2023-05-19T06:18:38.262Z,10.10
2023-05-19T06:21:07.143Z,10.40
2023-05-19T06:23:35.513Z,10.60
2023-05-19T06:26:05.384Z,10.80
2023-05-19T06:28:34.348Z,10.90
2023-05-19T06:31:03.176Z,11.20
2023-05-19T06:33:43.123Z,11.50
2023-05-19T06:36:12.143Z,11.60
2023-05-19T06:38:44.361Z,11.60
2023-05-19T06:41:14.739Z,11.70
2023-05-19T06:43:43.859Z,12.00
2023-05-19T06:46:17.833Z,12.40
2023-05-19T06:48:46.533Z,12.90
2023-05-19T06:51:16.709Z,13.10
2023-05-19T06:53:45.577Z,12.90
2023-05-19T06:56:18.621Z,12.80
2023-05-19T06:58:47.444Z,12.70
2023-05-19T07:01:16.040Z,12.80
2023-05-19T07:03:50.257Z,12.90
2023-05-19T07:06:18.720Z,12.90
2023-05-19T07:08:47.141Z,12.70
2023-05-19T07:11:17.407Z,12.90
2023-05-19T07:13:46.411Z,13.10
2023-05-19T07:16:19.984Z,13.20
2023-05-19T07:18:48.418Z,13.30
2023-05-19T07:21:16.775Z,13.40
2023-05-19T07:23:45.243Z,13.20
2023-05-19T07:26:16.688Z,13.10
2023-05-19T07:28:46.500Z,13.00
2023-05-19T07:31:14.974Z,12.90
2023-05-19T07:33:45.927Z,12.80
2023-05-19T07:36:16.647Z,12.70
2023-05-19T07:38:45.222Z,12.70
2023-05-19T07:41:13.708Z,12.80
2023-05-19T07:43:44.490Z,12.70
2023-05-19T07:46:14.408Z,12.80
2023-05-19T07:48:45.433Z,12.80
2023-05-19T07:51:16.293Z,12.90
2023-05-19T07:53:44.744Z,12.80
2023-05-19T07:56:13.106Z,12.90
2023-05-19T07:58:44.550Z,12.90
2023-05-19T08:01:14.397Z,12.80
2023-05-19T08:03:42.891Z,13.00
2023-05-19T08:06:11.328Z,13.30
2023-05-19T08:08:42.246Z,13.50
2023-05-19T08:11:10.695Z,13.60
2023-05-19T08:13:41.737Z,13.70
2023-05-19T08:16:10.185Z,13.80
2023-05-19T08:18:40.082Z,13.90
2023-05-19T08:21:08.471Z,13.90
2023-05-19T08:23:37.502Z,14.20
2023-05-19T08:26:08.396Z,14.10
2023-05-19T08:28:39.146Z,14.30
2023-05-19T08:31:09.888Z,14.20
2023-05-19T08:33:39.691Z,14.40
2023-05-19T08:36:08.295Z,14.60
2023-05-19T08:38:36.655Z,14.70
2023-05-19T08:41:05.986Z,14.80
2023-05-19T08:43:34.430Z,15.10
2023-05-19T08:46:04.965Z,15.10
2023-05-19T08:48:34.509Z,15.40
2023-05-19T08:51:13.003Z,15.70
2023-05-19T08:53:44.034Z,16.00
2023-05-19T08:56:14.292Z,16.10
2023-05-19T08:58:44.205Z,16.30
2023-05-19T09:01:14.929Z,16.60
2023-05-19T09:03:44.323Z,16.80
2023-05-19T09:06:14.507Z,16.90
2023-05-19T09:08:43.646Z,17.00
2023-05-19T09:11:14.540Z,17.20
2023-05-19T09:13:42.932Z,17.40
2023-05-19T09:16:13.990Z,17.80
2023-05-19T09:18:54.744Z,18.10
2023-05-19T09:21:31.608Z,18.20
2023-05-19T09:24:04.986Z,18.10
2023-05-19T09:26:39.386Z,18.00
2023-05-19T09:29:14.765Z,18.00
2023-05-19T09:31:52.678Z,18.20
2023-05-19T09:34:22.312Z,18.40
2023-05-19T09:36:53.471Z,18.60
2023-05-19T09:39:23.698Z,18.70
2023-05-19T09:41:54.525Z,18.50
2023-05-19T09:44:29.543Z,18.60
2023-05-19T09:46:59.903Z,18.40
2023-05-19T09:49:31.470Z,18.70
2023-05-19T09:52:05.941Z,18.70
2023-05-19T09:54:35.812Z,18.70
2023-05-19T09:57:08.536Z,18.90
2023-05-19T09:59:38.981Z,19.00
2023-05-19T10:02:11.433Z,18.90
2023-05-19T10:04:40.134Z,18.80
2023-05-19T10:07:13.637Z,18.80
2023-05-19T10:09:44.025Z,18.70
2023-05-19T10:12:13.377Z,18.60
2023-05-19T10:14:42.499Z,18.50
2023-05-19T10:17:12.533Z,18.60
2023-05-19T10:19:42.467Z,18.70
2023-05-19T10:22:12.504Z,18.90
2023-05-19T10:24:41.165Z,18.60
2023-05-19T10:27:14.986Z,18.60
2023-05-19T10:29:51.057Z,18.40
2023-05-19T10:32:24.841Z,18.40
2023-05-19T10:35:29.330Z,18.40
2023-05-19T10:38:14.291Z,18.40
2023-05-19T10:40:54.305Z,18.60
2023-05-19T10:43:32.293Z,18.70
2023-05-19T10:46:01.057Z,18.60
2023-05-19T10:48:36.782Z,18.50
2023-05-19T10:51:12.240Z,18.70
2023-05-19T10:53:50.148Z,18.80
2023-05-19T10:56:34.278Z,18.90
2023-05-19T10:59:03.510Z,18.90
2023-05-19T11:01:38.317Z,18.90
2023-05-19T11:04:09.282Z,18.90
2023-05-19T11:06:38.747Z,18.80
2023-05-19T11:09:16.915Z,18.70
2023-05-19T11:11:48.857Z,18.60
2023-05-19T11:14:20.631Z,18.70
2023-05-19T11:16:50.433Z,18.50
2023-05-19T11:19:27.261Z,18.50
2023-05-19T11:21:57.605Z,18.30
2023-05-19T11:24:40.741Z,18.20
2023-05-19T11:27:22.047Z,18.00
2023-05-19T11:29:51.320Z,17.90
2023-05-19T11:32:21.894Z,18.00
2023-05-19T11:34:51.198Z,17.90
2023-05-19T11:37:19.880Z,17.90
2023-05-19T11:39:49.771Z,17.80
2023-05-19T11:42:18.195Z,17.80
2023-05-19T11:44:46.936Z,17.90
2023-05-19T11:47:18.397Z,17.90
2023-05-19T11:49:48.929Z,18.20
2023-05-19T11:52:17.418Z,18.10
2023-05-19T11:54:49.436Z,17.90
2023-05-19T11:57:19.314Z,17.70
2023-05-19T11:59:49.758Z,17.60
2023-05-19T12:02:24.944Z,17.40
2023-05-19T12:04:53.762Z,17.40
2023-05-19T12:07:24.469Z,17.90
2023-05-19T12:09:53.658Z,18.00
2023-05-19T12:12:24.231Z,17.70
2023-05-19T12:14:53.508Z,17.60
2023-05-19T12:17:25.026Z,17.30
2023-05-19T12:19:53.533Z,17.40
2023-05-19T12:22:22.021Z,17.40
2023-05-19T12:24:50.517Z,17.40
2023-05-19T12:27:21.939Z,17.50
2023-05-19T12:29:55.769Z,18.30
2023-05-19T12:32:25.550Z,18.90
2023-05-19T12:34:54.245Z,19.30
2023-05-19T12:37:22.792Z,19.20
2023-05-19T12:39:51.601Z,19.10
2023-05-19T12:42:20.742Z,18.50
2023-05-19T12:44:51.106Z,18.00
2023-05-19T12:47:23.346Z,17.60
2023-05-19T12:49:58.637Z,17.50
2023-05-19T12:52:30.583Z,17.60
2023-05-19T12:55:05.062Z,18.20
2023-05-19T12:57:35.672Z,18.70
2023-05-19T13:00:07.033Z,19.00
2023-05-19T13:02:55.981Z,19.30
2023-05-19T13:05:24.801Z,19.30
2023-05-19T13:07:58.086Z,18.80
2023-05-19T13:10:29.588Z,18.50
2023-05-19T13:12:58.954Z,18.10
2023-05-19T13:15:29.552Z,17.80
2023-05-19T13:17:59.585Z,17.60
2023-05-19T13:20:30.303Z,17.50
2023-05-19T13:22:58.794Z,17.30
2023-05-19T13:25:27.610Z,17.30
2023-05-19T13:27:56.766Z,17.20
2023-05-19T13:30:27.469Z,17.30
2023-05-19T13:32:59.835Z,17.30
2023-05-19T13:35:28.324Z,17.30
2023-05-19T13:37:56.801Z,17.50
2023-05-19T13:40:26.034Z,17.60
2023-05-19T13:42:55.016Z,17.60
2023-05-19T13:45:23.398Z,17.60
2023-05-19T13:47:51.796Z,17.60
2023-05-19T13:50:22.065Z,17.60
2023-05-19T13:52:50.467Z,17.60
2023-05-19T13:55:19.159Z,17.70
2023-05-19T13:57:47.536Z,17.90
2023-05-19T14:00:18.339Z,17.90
2023-05-19T14:02:46.933Z,17.80
2023-05-19T14:05:15.463Z,17.80
2023-05-19T14:07:45.185Z,17.70
2023-05-19T14:10:13.599Z,17.70
2023-05-19T14:13:02.419Z,17.80
2023-05-19T14:15:37.743Z,17.80
2023-05-19T14:18:07.189Z,17.90
2023-05-19T14:20:36.243Z,17.80
2023-05-19T14:23:06.240Z,17.80
2023-05-19T14:25:34.653Z,17.70
2023-05-19T14:28:03.053Z,17.60
2023-05-19T14:30:31.840Z,17.50
2023-05-19T14:33:00.666Z,17.60
2023-05-19T14:35:29.256Z,17.50
2023-05-19T14:37:57.618Z,17.50
2023-05-19T14:40:27.423Z,17.70
2023-05-19T14:42:55.842Z,17.80
2023-05-19T14:45:24.305Z,17.80
2023-05-19T14:47:52.751Z,17.80
2023-05-19T14:50:23.628Z,17.70
2023-05-19T14:52:54.337Z,17.80
2023-05-19T14:55:22.699Z,17.90
2023-05-19T14:57:54.650Z,17.80
2023-05-19T15:00:23.122Z,17.90
2023-05-19T15:02:53.837Z,17.90
2023-05-19T15:05:22.944Z,17.90
2023-05-19T15:07:53.459Z,17.80
2023-05-19T15:10:21.987Z,17.80
2023-05-19T15:12:50.437Z,17.80
2023-05-19T15:15:22.567Z,17.80
2023-05-19T15:17:54.353Z,17.80
2023-05-19T15:20:22.763Z,17.90
2023-05-19T15:22:51.142Z,17.90
2023-05-19T15:25:19.594Z,17.90
2023-05-19T15:27:48.020Z,17.90
2023-05-19T15:30:19.513Z,17.80
2023-05-19T15:32:51.697Z,17.90
2023-05-19T15:35:20.137Z,17.90
2023-05-19T15:37:48.555Z,17.90
2023-05-19T15:40:17.167Z,18.00
2023-05-19T15:42:45.605Z,18.00
2023-05-19T15:45:14.053Z,18.10
2023-05-19T15:47:42.460Z,18.10
2023-05-19T15:50:13.169Z,18.10
2023-05-19T15:52:42.656Z,18.00
2023-05-19T15:55:11.502Z,18.00
2023-05-19T15:57:39.901Z,17.90
2023-05-19T16:00:09.571Z,18.00
2023-05-19T16:02:38.034Z,18.00
2023-05-19T16:05:06.875Z,18.00
2023-05-19T16:07:36.692Z,18.00
2023-05-19T16:10:05.656Z,18.10
2023-05-19T16:12:34.185Z,18.10
2023-05-19T16:15:02.563Z,18.00
2023-05-19T16:17:33.365Z,17.80
2023-05-19T16:20:01.850Z,17.80
2023-05-19T16:22:30.639Z,17.80
2023-05-19T16:25:00.526Z,17.80
2023-05-19T16:27:31.455Z,17.80
2023-05-19T16:30:01.197Z,17.80
2023-05-19T16:32:29.661Z,17.80
2023-05-19T16:34:58.066Z,17.80
2023-05-19T16:37:26.416Z,17.70
2023-05-19T16:39:54.781Z,17.70
2023-05-19T16:42:25.218Z,17.80
2023-05-19T16:44:55.803Z,17.80
2023-05-19T16:47:24.185Z,17.80
2023-05-19T16:49:52.586Z,17.90
2023-05-19T16:52:21.054Z,17.90
2023-05-19T16:54:49.427Z,17.90
2023-05-19T16:57:17.893Z,17.80
2023-05-19T16:59:50.586Z,17.80
2023-05-19T17:02:19.023Z,17.70
2023-05-19T17:04:48.528Z,17.60
2023-05-19T17:07:16.937Z,17.60
2023-05-19T17:09:45.859Z,17.50
2023-05-19T17:12:16.713Z,17.50
2023-05-19T17:14:45.105Z,17.40
2023-05-19T17:17:14.982Z,17.40
2023-05-19T17:19:43.417Z,17.30
2023-05-19T17:22:11.891Z,17.30
2023-05-19T17:24:40.323Z,17.30
2023-05-19T17:27:08.680Z,17.20
2023-05-19T17:29:37.158Z,17.20
2023-05-19T17:32:06.059Z,17.10
2023-05-19T17:34:35.842Z,17.10
2023-05-19T17:37:06.551Z,17.00
2023-05-19T17:39:34.920Z,17.00
2023-05-19T17:42:03.304Z,16.90
2023-05-19T17:44:31.731Z,16.90
2023-05-19T17:47:01.642Z,16.90
2023-05-19T17:49:29.995Z,16.90
2023-05-19T17:52:00.333Z,16.80
2023-05-19T17:54:29.216Z,16.80
2023-05-19T17:56:59.108Z,16.70
2023-05-19T17:59:27.999Z,16.70
2023-05-19T18:01:57.140Z,16.60
2023-05-19T18:04:26.161Z,16.60
2023-05-19T18:06:54.732Z,16.50
2023-05-19T18:09:29.129Z,16.40
2023-05-19T18:12:02.328Z,16.40
2023-05-19T18:14:33.350Z,16.30
2023-05-19T18:17:01.802Z,16.30
2023-05-19T18:19:30.226Z,16.20
2023-05-19T18:21:58.717Z,16.20
2023-05-19T18:24:28.515Z,16.10
2023-05-19T18:26:56.941Z,16.00
2023-05-19T18:29:25.350Z,16.00
2023-05-19T18:31:53.796Z,16.00
2023-05-19T18:34:22.199Z,15.90
2023-05-19T18:36:50.556Z,15.90
2023-05-19T18:39:18.924Z,15.70
2023-05-19T18:41:49.734Z,15.70
2023-05-19T18:44:18.122Z,15.60
2023-05-19T18:46:46.729Z,15.50
2023-05-19T18:49:15.118Z,15.40
2023-05-19T18:51:43.548Z,15.40
2023-05-19T18:54:12.467Z,15.30
2023-05-19T18:56:41.428Z,15.30
2023-05-19T18:59:13.741Z,15.20
2023-05-19T19:01:42.918Z,15.10
2023-05-19T19:04:11.530Z,15.00
2023-05-19T19:06:40.708Z,14.90
2023-05-19T19:09:10.305Z,14.90
2023-05-19T19:11:41.066Z,14.80
2023-05-19T19:14:10.278Z,14.70
2023-05-19T19:16:40.217Z,14.70
2023-05-19T19:19:08.784Z,14.60
2023-05-19T19:21:37.281Z,14.60
2023-05-19T19:24:06.408Z,14.60
2023-05-19T19:26:34.803Z,14.50
2023-05-19T19:29:03.189Z,14.40
2023-05-19T19:31:33.250Z,14.30
2023-05-19T19:34:09.038Z,14.30
2023-05-19T19:36:39.715Z,14.30
2023-05-19T19:39:10.760Z,14.20
2023-05-19T19:41:40.950Z,14.10
2023-05-19T19:44:09.587Z,14.20
2023-05-19T19:46:38.223Z,14.10
2023-05-19T19:49:08.358Z,14.00
2023-05-19T19:51:39.125Z,14.00
2023-05-19T19:54:10.638Z,13.90
2023-05-19T19:56:39.262Z,13.80
2023-05-19T19:59:07.800Z,13.80
2023-05-19T20:01:36.481Z,13.70
2023-05-19T20:04:05.254Z,13.70
2023-05-19T20:06:35.405Z,13.60
2023-05-19T20:09:05.026Z,13.50
2023-05-19T20:11:33.762Z,13.50
2023-05-19T20:14:04.909Z,13.60
2023-05-19T20:16:33.711Z,13.50
2023-05-19T20:19:02.656Z,13.50
2023-05-19T20:21:31.374Z,13.50
2023-05-19T20:24:01.518Z,13.50
2023-05-19T20:26:30.284Z,13.40
2023-05-19T20:29:01.155Z,13.40
2023-05-19T20:31:29.792Z,13.30
2023-05-19T20:33:59.354Z,13.30
2023-05-19T20:36:29.418Z,13.30
2023-05-19T20:38:58.092Z,13.20
2023-05-19T20:41:28.138Z,13.20
2023-05-19T20:43:59.132Z,13.10
2023-05-19T20:46:27.825Z,13.10
2023-05-19T20:48:56.622Z,13.10
2023-05-19T20:51:25.352Z,13.00
2023-05-19T20:53:56.247Z,13.00
2023-05-19T20:56:24.816Z,12.90
2023-05-19T20:58:54.831Z,12.90
2023-05-19T21:01:25.328Z,12.90
2023-05-19T21:03:53.934Z,12.90
2023-05-19T21:06:24.669Z,12.90
2023-05-19T21:08:55.566Z,12.80
2023-05-19T21:11:26.434Z,12.80
2023-05-19T21:13:56.773Z,12.70
2023-05-19T21:16:26.164Z,12.70
2023-05-19T21:18:54.832Z,12.70
2023-05-19T21:21:23.365Z,12.60
2023-05-19T21:23:51.936Z,12.60
2023-05-19T21:26:21.723Z,12.50
2023-05-19T21:28:50.263Z,12.50
2023-05-19T21:31:22.759Z,12.50
2023-05-19T21:33:51.492Z,12.50
2023-05-19T21:36:20.178Z,12.40
2023-05-19T21:38:48.772Z,12.40
2023-05-19T21:41:17.298Z,12.30
2023-05-19T21:43:47.174Z,12.30
2023-05-19T21:46:15.986Z,12.30
2023-05-19T21:48:46.020Z,12.30
2023-05-19T21:51:14.562Z,12.30
2023-05-19T21:53:43.217Z,12.20
2023-05-19T21:56:11.735Z,12.10
2023-05-19T21:58:40.497Z,12.10
2023-05-19T22:01:09.204Z,12.00
2023-05-19T22:03:37.832Z,12.00
2023-05-19T22:06:09.853Z,12.10
2023-05-19T22:08:40.833Z,12.10
2023-05-19T22:11:11.888Z,12.10
2023-05-19T22:13:41.248Z,12.10
2023-05-19T22:16:12.457Z,12.10
2023-05-19T22:18:41.046Z,12.10
2023-05-19T22:21:13.058Z,12.10
2023-05-19T22:23:44.238Z,12.00
2023-05-19T22:26:12.831Z,12.00
2023-05-19T22:28:41.848Z,12.00
2023-05-19T22:31:10.363Z,12.00
2023-05-19T22:33:38.903Z,11.90
2023-05-19T22:36:11.379Z,11.90
2023-05-19T22:38:40.001Z,11.90
2023-05-19T22:41:08.778Z,11.90
2023-05-19T22:43:38.765Z,11.90
2023-05-19T22:46:07.381Z,11.80
2023-05-19T22:48:38.976Z,11.90
2023-05-19T22:51:07.666Z,11.80
2023-05-19T22:53:37.668Z,11.80
2023-05-19T22:56:08.817Z,11.80
2023-05-19T22:58:37.347Z,11.80
2023-05-19T23:01:08.358Z,11.80
2023-05-19T23:03:39.504Z,11.70
2023-05-19T23:06:08.121Z,11.70
2023-05-19T23:08:38.126Z,11.60
2023-05-19T23:11:06.687Z,11.50
2023-05-19T23:13:35.358Z,11.50
2023-05-19T23:16:07.632Z,11.50
2023-05-19T23:18:36.235Z,11.40
2023-05-19T23:21:04.942Z,11.30
2023-05-19T23:23:37.664Z,11.20
2023-05-19T23:26:13.306Z,11.20
2023-05-19T23:28:43.361Z,11.20
2023-05-19T23:31:14.316Z,11.20
2023-05-19T23:33:43.892Z,11.30
2023-05-19T23:36:12.785Z,11.20
2023-05-19T23:38:42.820Z,11.10
2023-05-19T23:41:11.447Z,11.10
2023-05-19T23:43:40.460Z,11.00
2023-05-19T23:46:09.371Z,11.00
2023-05-19T23:48:38.039Z,11.00
2023-05-19T23:51:07.076Z,11.00
2023-05-19T23:53:35.626Z,11.00
2023-05-19T23:56:07.705Z,11.00
2023-05-19T23:58:39.215Z,10.90
